createdAt,value
2022-08-14T00:02:04.622Z,41.70
2022-08-14T00:04:44.765Z,41.60
2022-08-14T00:07:14.599Z,41.70
2022-08-14T00:09:55.797Z,41.60
2022-08-14T00:12:33.908Z,41.70
2022-08-14T00:15:11.508Z,41.70
2022-08-14T00:17:47.462Z,41.70
2022-08-14T00:20:24.150Z,41.80
2022-08-14T00:22:58.650Z,41.70
2022-08-14T00:25:41.796Z,41.70
2022-08-14T00:28:15.534Z,41.60
2022-08-14T00:30:48.571Z,41.60
2022-08-14T00:33:16.385Z,41.50
2022-08-14T00:36:34.912Z,41.40
2022-08-14T00:38:34.855Z,41.30
2022-08-14T00:41:07.232Z,41.30
2022-08-14T00:43:41.656Z,41.30
2022-08-14T00:46:32.113Z,41.40
2022-08-14T00:49:00.401Z,41.30
2022-08-14T00:51:37.748Z,41.40
2022-08-14T00:54:11.016Z,41.30
2022-08-14T00:56:50.028Z,41.20
2022-08-14T00:59:17.216Z,41.20
2022-08-14T01:01:45.284Z,41.30
2022-08-14T01:04:37.888Z,41.30
2022-08-14T01:07:07.575Z,41.20
2022-08-14T01:09:39.158Z,41.20
2022-08-14T01:12:07.790Z,41.20
2022-08-14T01:14:35.762Z,41.20
2022-08-14T01:17:03.826Z,41.30
2022-08-14T01:19:49.582Z,41.20
2022-08-14T01:22:19.182Z,41.30
2022-08-14T01:24:47.451Z,41.10
2022-08-14T01:27:18.728Z,41.10
2022-08-14T01:30:00.638Z,41.10
2022-08-14T01:32:45.105Z,41.10
2022-08-14T01:36:03.274Z,40.90
2022-08-14T01:38:05.828Z,40.80
2022-08-14T01:40:40.871Z,40.90
2022-08-14T01:43:18.583Z,40.90
2022-08-14T01:45:57.571Z,40.90
2022-08-14T01:48:37.637Z,40.90
2022-08-14T01:51:20.165Z,41.00
2022-08-14T01:53:54.624Z,41.00
2022-08-14T01:56:39.743Z,41.00
2022-08-14T01:59:19.828Z,41.00
2022-08-14T02:01:58.902Z,41.00
2022-08-14T02:04:54.573Z,41.10
2022-08-14T02:07:34.211Z,41.00
2022-08-14T02:10:07.284Z,41.00
2022-08-14T02:12:35.006Z,41.10
2022-08-14T02:15:02.746Z,41.00
2022-08-14T02:17:30.681Z,40.90
2022-08-14T02:19:58.697Z,40.90
2022-08-14T02:22:28.688Z,41.00
2022-08-14T02:24:59.910Z,41.10
2022-08-14T02:28:23.429Z,41.10
2022-08-14T02:30:16.625Z,41.00
2022-08-14T02:32:44.633Z,41.00
2022-08-14T02:35:19.238Z,41.10
2022-08-14T02:37:50.165Z,41.00
2022-08-14T02:40:19.152Z,41.10
2022-08-14T02:42:54.996Z,41.00
2022-08-14T02:45:33.548Z,40.90
2022-08-14T02:48:10.327Z,40.80
2022-08-14T02:50:54.199Z,40.90
2022-08-14T02:53:21.123Z,40.80
2022-08-14T02:55:49.702Z,40.80
2022-08-14T02:58:29.243Z,40.80
2022-08-14T03:00:59.077Z,40.80
2022-08-14T03:03:26.405Z,40.60
2022-08-14T03:05:54.238Z,40.50
2022-08-14T03:08:22.048Z,40.50
2022-08-14T03:10:50.261Z,40.40
2022-08-14T03:13:21.371Z,40.50
2022-08-14T03:15:56.200Z,40.60
2022-08-14T03:18:30.571Z,40.50
2022-08-14T03:21:05.993Z,40.60
2022-08-14T03:23:37.776Z,40.70
2022-08-14T03:26:08.766Z,40.70
2022-08-14T03:28:42.274Z,40.80
2022-08-14T03:31:13.213Z,40.70
2022-08-14T03:33:41.467Z,40.70
2022-08-14T03:37:50.735Z,40.60
2022-08-14T03:39:16.103Z,40.40
2022-08-14T03:41:50.096Z,40.50
2022-08-14T03:45:20.370Z,40.60
2022-08-14T03:47:05.294Z,40.40
2022-08-14T03:49:34.083Z,40.30
2022-08-14T03:52:17.813Z,40.40
2022-08-14T03:54:52.739Z,40.50
2022-08-14T03:57:22.835Z,40.50
2022-08-14T03:59:50.957Z,40.50
2022-08-14T04:02:32.769Z,40.50
2022-08-14T04:05:12.665Z,40.40
2022-08-14T04:07:49.956Z,40.20
2022-08-14T04:10:32.732Z,40.10
2022-08-14T04:13:06.358Z,40.10
2022-08-14T04:15:56.436Z,40.20
2022-08-14T04:18:22.793Z,40.40
2022-08-14T04:20:51.612Z,40.60
2022-08-14T04:23:29.373Z,40.50
2022-08-14T04:26:02.057Z,40.40
2022-08-14T04:29:07.794Z,40.60
2022-08-14T04:31:18.041Z,40.70
2022-08-14T04:33:52.975Z,40.80
2022-08-14T04:36:20.572Z,40.80
2022-08-14T04:39:09.607Z,40.70
2022-08-14T04:41:57.891Z,40.60
2022-08-14T04:44:36.106Z,40.60
2022-08-14T04:47:23.672Z,40.70
2022-08-14T04:49:57.260Z,40.90
2022-08-14T04:52:25.826Z,40.90
2022-08-14T04:54:54.466Z,41.00
2022-08-14T04:57:22.856Z,41.10
2022-08-14T04:59:52.862Z,41.20
2022-08-14T05:02:21.621Z,41.30
2022-08-14T05:04:58.499Z,41.40
2022-08-14T05:07:46.476Z,41.60
2022-08-14T05:10:16.716Z,41.60
2022-08-14T05:13:12.511Z,41.80
2022-08-14T05:15:39.531Z,41.80
2022-08-14T05:18:17.579Z,41.90
2022-08-14T05:21:58.022Z,42.10
2022-08-14T05:23:52.046Z,42.10
2022-08-14T05:26:21.729Z,42.20
2022-08-14T05:28:50.410Z,42.30
2022-08-14T05:31:20.562Z,42.40
2022-08-14T05:33:56.640Z,42.60
2022-08-14T05:36:27.073Z,42.60
2022-08-14T05:38:54.386Z,42.60
2022-08-14T05:41:22.508Z,42.70
2022-08-14T05:43:51.074Z,42.80
2022-08-14T05:46:24.989Z,43.00
2022-08-14T05:48:54.462Z,43.20
2022-08-14T05:51:23.330Z,43.40
2022-08-14T05:54:01.535Z,43.50
2022-08-14T05:56:37.577Z,43.70
2022-08-14T05:59:05.579Z,43.90
2022-08-14T06:01:34.760Z,44.10
2022-08-14T06:04:04.485Z,44.30
2022-08-14T06:06:38.119Z,44.40
2022-08-14T06:09:06.076Z,44.40
2022-08-14T06:11:37.817Z,44.50
2022-08-14T06:14:12.423Z,44.90
2022-08-14T06:16:48.916Z,45.10
2022-08-14T06:19:18.441Z,45.30
2022-08-14T06:21:48.127Z,45.40
2022-08-14T06:24:18.333Z,45.50
2022-08-14T06:26:51.994Z,45.40
2022-08-14T06:29:23.747Z,45.80
2022-08-14T06:31:59.958Z,46.10
2022-08-14T06:35:02.280Z,46.00
2022-08-14T06:37:17.191Z,46.00
2022-08-14T06:39:44.607Z,46.40
2022-08-14T06:42:31.361Z,46.80
2022-08-14T06:45:02.869Z,47.00
2022-08-14T06:47:30.029Z,47.30
2022-08-14T06:49:58.169Z,47.60
2022-08-14T06:52:25.744Z,48.00
2022-08-14T06:54:52.723Z,48.30
2022-08-14T06:57:21.547Z,48.50
2022-08-14T06:59:49.927Z,48.80
2022-08-14T07:02:37.511Z,49.10
2022-08-14T07:05:29.983Z,49.50
2022-08-14T07:07:58.037Z,49.70
2022-08-14T07:10:25.703Z,50.00
2022-08-14T07:13:01.656Z,50.20
2022-08-14T07:15:33.638Z,50.40
2022-08-14T07:18:02.299Z,50.80
2022-08-14T07:20:31.882Z,51.00
2022-08-14T07:23:07.966Z,51.30
2022-08-14T07:25:37.952Z,51.70
2022-08-14T07:28:24.108Z,51.80
2022-08-14T07:30:56.457Z,51.90
2022-08-14T07:33:29.057Z,51.90
2022-08-14T07:36:00.121Z,52.00
2022-08-14T07:38:35.457Z,51.90
2022-08-14T07:41:14.283Z,51.90
2022-08-14T07:43:42.709Z,51.90
2022-08-14T07:46:11.385Z,52.20
2022-08-14T07:48:41.324Z,52.30
2022-08-14T07:51:11.201Z,52.30
2022-08-14T07:53:40.772Z,52.10
2022-08-14T07:56:44.025Z,51.70
2022-08-14T07:58:58.204Z,51.90
2022-08-14T08:01:29.968Z,51.80
2022-08-14T08:04:00.191Z,52.00
2022-08-14T08:06:29.742Z,52.10
2022-08-14T08:09:03.137Z,51.80
2022-08-14T08:11:37.108Z,52.00
2022-08-14T08:14:17.578Z,52.30
2022-08-14T08:16:47.554Z,52.40
2022-08-14T08:19:19.441Z,52.70
2022-08-14T08:21:47.638Z,52.90
2022-08-14T08:24:20.026Z,52.70
2022-08-14T08:26:50.312Z,52.80
2022-08-14T08:29:25.063Z,52.90
2022-08-14T08:31:56.756Z,52.90
2022-08-14T08:34:30.374Z,53.30
2022-08-14T08:37:00.844Z,53.10
2022-08-14T08:40:01.833Z,53.10
2022-08-14T08:42:38.817Z,52.90
2022-08-14T08:45:15.332Z,52.70
2022-08-14T08:47:46.539Z,52.50
2022-08-14T08:53:08.682Z,51.50
2022-08-14T08:55:42.442Z,51.20
2022-08-14T08:58:20.185Z,51.10
2022-08-14T09:00:56.051Z,51.00
2022-08-14T09:03:27.447Z,51.60
2022-08-14T09:05:54.742Z,51.50
2022-08-14T09:08:31.574Z,52.00
2022-08-14T09:11:19.424Z,52.20
2022-08-14T09:13:50.595Z,52.20
2022-08-14T09:16:23.686Z,52.60
2022-08-14T09:18:53.340Z,52.40
2022-08-14T09:21:24.099Z,52.40
2022-08-14T09:24:28.020Z,52.50
2022-08-14T09:26:43.840Z,52.60
2022-08-14T09:29:11.341Z,52.90
2022-08-14T09:31:53.433Z,52.70
2022-08-14T09:34:30.055Z,53.30
2022-08-14T09:37:27.094Z,53.10
2022-08-14T09:40:20.948Z,52.80
2022-08-14T09:42:53.559Z,52.80
2022-08-14T09:45:40.210Z,53.10
2022-08-14T09:48:27.646Z,53.30
2022-08-14T09:54:19.239Z,54.00
2022-08-14T09:56:32.853Z,53.80
2022-08-14T09:59:15.270Z,53.80
2022-08-14T10:01:46.324Z,54.20
2022-08-14T10:04:36.066Z,54.00
2022-08-14T10:07:06.196Z,54.20
2022-08-14T10:09:57.778Z,54.00
2022-08-14T10:12:54.702Z,53.40
2022-08-14T10:15:25.401Z,53.50
2022-08-14T10:18:05.392Z,53.40
2022-08-14T10:20:40.702Z,53.40
2022-08-14T10:23:22.145Z,53.60
2022-08-14T10:25:53.102Z,53.40
2022-08-14T10:28:51.564Z,53.30
2022-08-14T10:31:25.611Z,53.70
2022-08-14T10:34:12.998Z,54.30
2022-08-14T10:36:48.074Z,54.20
2022-08-14T10:39:20.364Z,54.30
2022-08-14T10:41:53.683Z,54.80
2022-08-14T10:44:25.153Z,54.90
2022-08-14T10:47:41.342Z,55.00
2022-08-14T10:49:59.743Z,55.40
2022-08-14T10:52:34.623Z,55.00
2022-08-14T10:55:16.260Z,54.90
2022-08-14T10:57:51.330Z,55.00
2022-08-14T11:00:30.427Z,55.20
2022-08-14T11:03:13.385Z,54.90
2022-08-14T11:05:55.537Z,55.10
2022-08-14T11:08:34.032Z,55.70
2022-08-14T11:11:05.612Z,55.90
2022-08-14T11:13:33.786Z,56.30
2022-08-14T11:16:02.373Z,56.60
2022-08-14T11:18:36.290Z,56.30
2022-08-14T11:21:09.678Z,56.50
2022-08-14T11:23:41.269Z,56.70
2022-08-14T11:26:13.373Z,57.00
2022-08-14T11:28:47.168Z,57.20
2022-08-14T11:31:18.269Z,57.20
2022-08-14T11:33:55.589Z,57.20
2022-08-14T11:36:35.115Z,57.20
2022-08-14T11:39:34.890Z,57.00
2022-08-14T11:42:56.796Z,56.40
2022-08-14T11:45:00.160Z,56.10
2022-08-14T11:47:35.353Z,56.30
2022-08-14T11:50:25.177Z,56.60
2022-08-14T11:53:04.730Z,56.90
2022-08-14T11:55:38.438Z,57.20
2022-08-14T11:58:11.251Z,56.90
2022-08-14T12:00:58.681Z,56.90
2022-08-14T12:03:51.368Z,56.70
2022-08-14T12:06:29.185Z,56.30
2022-08-14T12:09:03.040Z,56.50
2022-08-14T12:11:43.526Z,56.50
2022-08-14T12:14:29.165Z,56.60
2022-08-14T12:17:12.846Z,56.90
2022-08-14T12:20:03.235Z,57.00
2022-08-14T12:22:34.735Z,57.20
2022-08-14T12:25:07.141Z,57.10
2022-08-14T12:27:52.818Z,57.10
2022-08-14T12:30:43.363Z,57.10
2022-08-14T12:33:30.601Z,57.20
2022-08-14T12:36:04.683Z,56.90
2022-08-14T12:38:43.604Z,57.00
2022-08-14T12:41:24.061Z,57.00
2022-08-14T12:44:02.885Z,56.90
2022-08-14T12:46:38.325Z,56.70
2022-08-14T12:49:15.939Z,56.30
2022-08-14T12:51:55.397Z,56.00
2022-08-14T12:54:28.356Z,55.80
2022-08-14T12:57:05.250Z,55.50
2022-08-14T12:59:36.880Z,55.20
2022-08-14T13:02:26.487Z,55.00
2022-08-14T13:04:56.589Z,54.90
2022-08-14T13:07:27.319Z,54.80
2022-08-14T13:10:00.591Z,54.60
2022-08-14T13:13:11.858Z,54.70
2022-08-14T13:15:36.710Z,54.40
2022-08-14T13:18:05.630Z,54.10
2022-08-14T13:20:34.046Z,54.10
2022-08-14T13:23:02.783Z,53.80
2022-08-14T13:25:30.124Z,53.30
2022-08-14T13:27:59.590Z,52.90
2022-08-14T13:30:27.431Z,52.50
2022-08-14T13:32:57.954Z,52.50
2022-08-14T13:35:26.347Z,52.30
2022-08-14T13:37:54.157Z,52.20
2022-08-14T13:40:26.362Z,52.30
2022-08-14T13:42:57.210Z,52.00
2022-08-14T13:45:27.604Z,51.90
2022-08-14T13:48:00.819Z,51.60
2022-08-14T13:50:27.808Z,51.20
2022-08-14T13:52:59.663Z,50.90
2022-08-14T13:55:30.278Z,50.70
2022-08-14T13:58:03.420Z,50.70
2022-08-14T14:00:53.149Z,50.90
2022-08-14T14:03:24.065Z,50.80
2022-08-14T14:05:54.910Z,51.00
2022-08-14T14:08:46.355Z,50.90
2022-08-14T14:11:16.133Z,50.70
2022-08-14T14:13:45.886Z,50.60
2022-08-14T14:16:22.025Z,50.70
2022-08-14T14:19:09.180Z,50.70
2022-08-14T14:21:37.512Z,50.90
2022-08-14T14:24:06.861Z,51.00
2022-08-14T14:26:36.065Z,51.30
2022-08-14T14:29:07.714Z,51.50
2022-08-14T14:31:39.000Z,51.30
2022-08-14T14:34:29.132Z,51.10
2022-08-14T14:37:02.995Z,50.70
2022-08-14T14:39:38.198Z,50.00
2022-08-14T14:42:32.446Z,49.60
2022-08-14T14:45:18.110Z,49.10
2022-08-14T14:47:59.149Z,48.80
2022-08-14T14:50:26.593Z,48.20
2022-08-14T14:53:12.419Z,48.10
2022-08-14T14:55:54.354Z,47.90
2022-08-14T14:58:31.117Z,47.90
2022-08-14T15:01:00.273Z,47.60
2022-08-14T15:03:27.350Z,47.30
2022-08-14T15:05:54.701Z,47.30
2022-08-14T15:08:26.696Z,47.20
2022-08-14T15:11:13.479Z,46.90
2022-08-14T15:13:43.193Z,46.50
2022-08-14T15:16:11.087Z,46.50
2022-08-14T15:18:46.907Z,46.50
2022-08-14T15:21:16.554Z,46.70
2022-08-14T15:23:45.022Z,46.80
2022-08-14T15:26:23.751Z,46.90
2022-08-14T15:29:03.063Z,46.80
2022-08-14T15:31:34.915Z,47.20
2022-08-14T15:34:43.101Z,46.70
2022-08-14T15:37:10.817Z,46.60
2022-08-14T15:39:41.182Z,46.10
2022-08-14T15:42:14.411Z,46.00
2022-08-14T15:44:57.998Z,46.00
2022-08-14T15:47:30.686Z,45.90
2022-08-14T15:50:04.966Z,46.10
2022-08-14T15:52:35.347Z,46.30
2022-08-14T15:55:14.756Z,46.30
2022-08-14T15:58:01.604Z,46.10
2022-08-14T16:00:52.489Z,46.00
2022-08-14T16:03:27.226Z,45.40
2022-08-14T16:06:10.824Z,45.50
2022-08-14T16:08:45.451Z,45.00
2022-08-14T16:11:14.354Z,45.30
2022-08-14T16:13:47.671Z,45.30
2022-08-14T16:16:47.772Z,45.50
2022-08-14T16:19:10.874Z,45.60
2022-08-14T16:22:02.421Z,45.70
2022-08-14T16:24:57.803Z,45.80
2022-08-14T16:27:38.762Z,45.90
2022-08-14T16:30:20.323Z,45.80
2022-08-14T16:32:57.040Z,45.60
2022-08-14T16:35:42.547Z,45.60
2022-08-14T16:38:19.553Z,45.10
2022-08-14T16:41:23.648Z,45.10
2022-08-14T16:44:04.622Z,45.50
2022-08-14T16:46:44.203Z,45.20
2022-08-14T16:49:13.916Z,45.10
2022-08-14T16:51:43.736Z,45.00
2022-08-14T16:54:34.552Z,45.00
2022-08-14T16:57:17.747Z,45.20
2022-08-14T16:59:52.607Z,45.10
2022-08-14T17:02:42.061Z,44.90
2022-08-14T17:05:24.969Z,45.00
2022-08-14T17:08:28.510Z,45.10
2022-08-14T17:10:53.590Z,45.00
2022-08-14T17:13:27.139Z,45.00
2022-08-14T17:16:24.783Z,45.20
2022-08-14T17:19:00.621Z,45.00
2022-08-14T17:21:38.067Z,45.10
2022-08-14T17:24:57.229Z,45.10
2022-08-14T17:27:00.165Z,44.90
2022-08-14T17:29:54.571Z,44.90
2022-08-14T17:32:29.598Z,44.80
2022-08-14T17:35:10.637Z,44.80
2022-08-14T17:37:44.914Z,44.80
2022-08-14T17:40:20.968Z,44.90
2022-08-14T17:42:51.656Z,44.80
2022-08-14T17:45:47.227Z,44.80
2022-08-14T17:49:10.501Z,44.70
2022-08-14T17:51:23.451Z,44.80
2022-08-14T17:54:01.259Z,44.60
2022-08-14T17:56:30.987Z,44.60
2022-08-14T17:59:05.278Z,44.40
2022-08-14T18:01:37.809Z,44.30
2022-08-14T18:04:28.199Z,44.20
2022-08-14T18:07:16.508Z,44.10
2022-08-14T18:09:56.298Z,44.00
2022-08-14T18:12:31.804Z,44.00
2022-08-14T18:15:16.091Z,43.80
2022-08-14T18:17:52.973Z,43.80
2022-08-14T18:21:42.271Z,43.80
2022-08-14T18:23:13.922Z,43.70
2022-08-14T18:25:54.957Z,43.60
2022-08-14T18:28:47.928Z,43.70
2022-08-14T18:31:23.285Z,43.70
2022-08-14T18:34:00.902Z,43.70
2022-08-14T18:36:55.482Z,43.70
2022-08-14T18:39:28.219Z,43.70
2022-08-14T18:42:23.065Z,43.90
2022-08-14T18:44:51.012Z,44.00
2022-08-14T18:47:22.090Z,44.10
2022-08-14T18:50:26.274Z,44.00
2022-08-14T18:52:53.494Z,44.00
2022-08-14T18:55:21.368Z,43.90
2022-08-14T18:57:58.145Z,43.50
2022-08-14T19:00:32.787Z,42.80
2022-08-14T19:03:04.945Z,42.20
2022-08-14T19:05:39.089Z,41.70
2022-08-14T19:08:39.362Z,40.70
2022-08-14T19:11:32.503Z,40.10
2022-08-14T19:14:04.800Z,39.40
2022-08-14T19:16:37.499Z,38.90
2022-08-14T19:19:12.288Z,38.60
2022-08-14T19:21:40.767Z,37.80
2022-08-14T19:24:27.202Z,38.50
2022-08-14T19:27:23.924Z,38.80
2022-08-14T19:30:19.207Z,38.80
2022-08-14T19:32:52.336Z,38.40
2022-08-14T19:35:24.377Z,38.60
2022-08-14T19:37:56.992Z,38.40
2022-08-14T19:40:40.146Z,37.90
2022-08-14T19:43:22.693Z,38.60
2022-08-14T19:46:38.962Z,38.50
2022-08-14T19:48:57.357Z,38.00
2022-08-14T19:51:25.427Z,38.30
2022-08-14T19:54:13.495Z,38.20
2022-08-14T19:56:45.035Z,38.40
2022-08-14T19:59:19.314Z,38.50
2022-08-14T20:01:51.584Z,38.50
2022-08-14T20:04:46.085Z,38.40
2022-08-14T20:07:59.263Z,38.70
2022-08-14T20:11:11.417Z,39.10
2022-08-14T20:13:32.944Z,39.40
2022-08-14T20:16:21.250Z,39.70
2022-08-14T20:19:17.642Z,40.00
2022-08-14T20:22:36.493Z,40.50
2022-08-14T20:24:54.216Z,40.80
2022-08-14T20:27:33.230Z,40.80
2022-08-14T20:30:28.876Z,41.20
2022-08-14T20:32:53.915Z,41.30
2022-08-14T20:35:40.042Z,41.50
2022-08-14T20:38:29.398Z,41.70
2022-08-14T20:40:59.169Z,41.80
2022-08-14T20:43:47.722Z,42.00
2022-08-14T20:46:29.428Z,42.10
2022-08-14T20:49:01.511Z,42.10
2022-08-14T20:51:54.997Z,42.20
2022-08-14T20:54:36.304Z,42.40
2022-08-14T20:57:17.918Z,42.40
2022-08-14T20:59:52.918Z,42.30
2022-08-14T21:02:38.707Z,42.40
2022-08-14T21:05:16.812Z,42.40
2022-08-14T21:07:50.808Z,42.40
2022-08-14T21:10:33.334Z,42.40
2022-08-14T21:13:26.373Z,42.40
2022-08-14T21:15:58.159Z,42.20
2022-08-14T21:18:32.255Z,41.90
2022-08-14T21:21:07.722Z,41.70
2022-08-14T21:23:55.382Z,41.90
2022-08-14T21:26:49.466Z,42.20
2022-08-14T21:29:14.668Z,42.40
2022-08-14T21:31:43.019Z,42.50
2022-08-14T21:34:31.793Z,42.50
2022-08-14T21:37:10.043Z,42.50
2022-08-14T21:39:38.250Z,42.40
2022-08-14T21:42:06.346Z,42.50
2022-08-14T21:44:42.799Z,42.60
2022-08-14T21:47:13.050Z,42.70
2022-08-14T21:49:43.108Z,42.60
2022-08-14T21:52:50.561Z,42.60
2022-08-14T21:55:12.454Z,42.40
2022-08-14T21:58:04.107Z,42.40
2022-08-14T22:00:42.083Z,42.30
2022-08-14T22:03:17.505Z,42.50
2022-08-14T22:05:47.722Z,42.60
2022-08-14T22:08:14.954Z,42.70
2022-08-14T22:10:46.559Z,42.70
2022-08-14T22:13:16.794Z,42.70
2022-08-14T22:15:49.454Z,42.60
2022-08-14T22:18:20.565Z,42.60
2022-08-14T22:20:53.529Z,42.60
2022-08-14T22:23:24.945Z,42.60
2022-08-14T22:25:53.715Z,42.70
2022-08-14T22:28:33.361Z,42.70
2022-08-14T22:31:10.433Z,42.70
2022-08-14T22:33:39.805Z,42.70
2022-08-14T22:36:33.869Z,42.70
2022-08-14T22:39:10.943Z,42.60
2022-08-14T22:41:42.596Z,42.20
2022-08-14T22:44:14.522Z,42.20
2022-08-14T22:46:43.098Z,42.20
2022-08-14T22:49:16.963Z,42.20
2022-08-14T22:51:58.036Z,42.00
2022-08-14T22:54:52.437Z,41.90
2022-08-14T22:57:14.056Z,41.90
2022-08-14T22:59:41.621Z,41.60
2022-08-14T23:02:32.225Z,41.50
2022-08-14T23:05:03.794Z,41.30
2022-08-14T23:08:56.558Z,41.30
2022-08-14T23:10:32.847Z,41.00
2022-08-14T23:13:03.811Z,41.00
2022-08-14T23:15:32.013Z,41.30
2022-08-14T23:17:59.736Z,41.30
2022-08-14T23:20:31.979Z,41.50
2022-08-14T23:22:59.069Z,41.50
2022-08-14T23:25:57.178Z,41.30
2022-08-14T23:28:32.852Z,41.20
2022-08-14T23:31:02.544Z,41.00
2022-08-14T23:33:34.959Z,40.80
2022-08-14T23:36:04.754Z,40.40
2022-08-14T23:38:52.879Z,40.00
2022-08-14T23:41:21.065Z,40.20
2022-08-14T23:43:54.683Z,40.30
2022-08-14T23:46:34.823Z,40.60
2022-08-14T23:49:02.530Z,40.00
2022-08-14T23:51:36.619Z,40.20
2022-08-14T23:54:05.881Z,40.40
2022-08-14T23:57:00.193Z,40.40
2022-08-14T23:59:31.667Z,39.60
